This is the latest recevied weather packets stored in our database for station/object W1CAT. If no packets are shown the sender has not sent any weather packets the latest 10 day(s).
| Time | Temp. | Humidity | Pressure | Rain* | Wind** | Luminosity | Snow |
|---|---|---|---|---|---|---|---|
| 1777217449 | 8.33° C | 59% | - | 0 mm | - | - | - |
| 1777217145 | 8.89° C | 58% | - | 0 mm | - | - | - |
| 1777216841 | 10° C | 57% | - | 0 mm | - | - | - |
| 1777216538 | 8.89° C | 61% | - | 0 mm | - | - | - |
| 1777216234 | 8.33° C | 62% | - | 0 mm | - | - | - |
| 1777215932 | 8.89° C | 61% | - | 0 mm | - | - | - |
| 1777215628 | 8.33° C | 63% | - | 0 mm | - | - | - |
| 1777215324 | 7.78° C | 65% | - | 0 mm | - | - | - |
| 1777215021 | 8.33° C | 62% | - | 0 mm | - | - | - |
| 1777214720 | 7.22° C | 67% | - | 0 mm | - | - | - |
| 1777214420 | 7.22° C | 68% | - | 0 mm | - | - | - |
| 1777214115 | 6.67° C | 70% | - | 0 mm | - | - | - |
| 1777213809 | 6.11° C | 72% | - | 0 mm | - | - | - |
| 1777213504 | 5.56° C | 74% | - | 0 mm | - | - | - |
| 1777213201 | 5.56° C | 74% | - | 0 mm | - | - | - |
| 1777212898 | 5.56° C | 73% | - | 0 mm | - | - | - |
| 1777212596 | 5.56° C | 71% | - | 0 mm | - | - | - |
| 1777212294 | 6.67° C | 68% | - | 0 mm | - | - | - |
| 1777211989 | 6.67° C | 66% | - | 0 mm | - | - | - |
| 1777211685 | 6.11° C | 70% | - | 0 mm | - | - | - |
| 1777211384 | 5° C | 72% | - | 0 mm | - | - | - |
| 1777211080 | 5° C | 73% | - | 0 mm | - | - | - |
| 1777210778 | 4.44° C | 73% | - | 0 mm | - | - | - |
| 1777210476 | 4.44° C | 74% | - | 0 mm | - | - | - |
| 1777210173 | 4.44° C | 74% | - | 0 mm | - | - | - |
* Rain latest hour (hover to see other rain measurements)
** Current wind speed in m/s (hover to see current wind gust speed)